sensor_id;sensor_type;location;lat;lon;timestamp;P1;durP1;ratioP1;P2;durP2;ratioP2
16640;SDS011;8434;47.990;7.880;2024-01-30T00:00:42;2.00;;;1.63;;
16640;SDS011;8434;47.990;7.880;2024-01-30T00:03:27;5.80;;;1.80;;
16640;SDS011;8434;47.990;7.880;2024-01-30T00:06:13;6.40;;;2.20;;
16640;SDS011;8434;47.990;7.880;2024-01-30T00:09:00;4.00;;;2.63;;
16640;SDS011;8434;47.990;7.880;2024-01-30T00:11:46;2.73;;;1.80;;
16640;SDS011;8434;47.990;7.880;2024-01-30T00:14:31;3.00;;;1.80;;
16640;SDS011;8434;47.990;7.880;2024-01-30T00:17:16;2.83;;;1.70;;
16640;SDS011;8434;47.990;7.880;2024-01-30T00:20:03;2.00;;;1.80;;
16640;SDS011;8434;47.990;7.880;2024-01-30T00:22:51;2.27;;;1.53;;
16640;SDS011;8434;47.990;7.880;2024-01-30T00:25:38;4.30;;;1.87;;
16640;SDS011;8434;47.990;7.880;2024-01-30T00:28:25;5.77;;;1.70;;
16640;SDS011;8434;47.990;7.880;2024-01-30T00:31:11;2.10;;;1.60;;
16640;SDS011;8434;47.990;7.880;2024-01-30T00:33:56;2.67;;;1.70;;
16640;SDS011;8434;47.990;7.880;2024-01-30T00:36:42;5.93;;;1.80;;
16640;SDS011;8434;47.990;7.880;2024-01-30T00:39:28;2.23;;;1.57;;
16640;SDS011;8434;47.990;7.880;2024-01-30T00:42:15;4.40;;;1.90;;
16640;SDS011;8434;47.990;7.880;2024-01-30T00:45:01;2.87;;;1.93;;
16640;SDS011;8434;47.990;7.880;2024-01-30T00:47:47;4.27;;;1.90;;
16640;SDS011;8434;47.990;7.880;2024-01-30T00:50:33;3.00;;;1.53;;
16640;SDS011;8434;47.990;7.880;2024-01-30T00:53:18;1.70;;;1.50;;
16640;SDS011;8434;47.990;7.880;2024-01-30T00:56:04;3.20;;;1.60;;
16640;SDS011;8434;47.990;7.880;2024-01-30T00:58:51;2.33;;;1.50;;
16640;SDS011;8434;47.990;7.880;2024-01-30T01:01:36;2.73;;;1.50;;
16640;SDS011;8434;47.990;7.880;2024-01-30T01:04:22;3.50;;;1.90;;
16640;SDS011;8434;47.990;7.880;2024-01-30T01:07:07;2.70;;;1.90;;
16640;SDS011;8434;47.990;7.880;2024-01-30T01:09:53;1.83;;;1.43;;
16640;SDS011;8434;47.990;7.880;2024-01-30T01:12:38;1.30;;;1.20;;
16640;SDS011;8434;47.990;7.880;2024-01-30T01:15:25;3.87;;;1.53;;
16640;SDS011;8434;47.990;7.880;2024-01-30T01:18:11;2.40;;;1.63;;
16640;SDS011;8434;47.990;7.880;2024-01-30T01:20:56;2.70;;;1.53;;
16640;SDS011;8434;47.990;7.880;2024-01-30T01:23:41;2.03;;;1.43;;
16640;SDS011;8434;47.990;7.880;2024-01-30T01:26:27;3.20;;;1.93;;
16640;SDS011;8434;47.990;7.880;2024-01-30T01:29:12;3.60;;;1.60;;
16640;SDS011;8434;47.990;7.880;2024-01-30T01:32:01;2.43;;;1.43;;
16640;SDS011;8434;47.990;7.880;2024-01-30T01:34:46;1.73;;;1.53;;
16640;SDS011;8434;47.990;7.880;2024-01-30T01:37:32;2.50;;;1.97;;
16640;SDS011;8434;47.990;7.880;2024-01-30T01:40:17;3.63;;;1.63;;
16640;SDS011;8434;47.990;7.880;2024-01-30T01:43:03;2.40;;;1.50;;
16640;SDS011;8434;47.990;7.880;2024-01-30T01:45:48;1.50;;;1.40;;
16640;SDS011;8434;47.990;7.880;2024-01-30T01:48:35;2.83;;;1.50;;
16640;SDS011;8434;47.990;7.880;2024-01-30T01:51:21;2.40;;;1.50;;
16640;SDS011;8434;47.990;7.880;2024-01-30T01:54:07;2.80;;;1.30;;
16640;SDS011;8434;47.990;7.880;2024-01-30T01:56:53;2.53;;;1.60;;
16640;SDS011;8434;47.990;7.880;2024-01-30T01:59:38;2.90;;;1.90;;
16640;SDS011;8434;47.990;7.880;2024-01-30T02:02:24;1.43;;;1.23;;
16640;SDS011;8434;47.990;7.880;2024-01-30T02:05:10;2.40;;;1.77;;
16640;SDS011;8434;47.990;7.880;2024-01-30T02:07:56;1.93;;;1.50;;
16640;SDS011;8434;47.990;7.880;2024-01-30T02:10:42;2.03;;;1.40;;
16640;SDS011;8434;47.990;7.880;2024-01-30T02:13:27;3.90;;;1.80;;
16640;SDS011;8434;47.990;7.880;2024-01-30T02:16:13;3.03;;;1.70;;
16640;SDS011;8434;47.990;7.880;2024-01-30T02:18:58;4.23;;;1.67;;
16640;SDS011;8434;47.990;7.880;2024-01-30T02:21:49;1.73;;;1.20;;
16640;SDS011;8434;47.990;7.880;2024-01-30T02:24:35;1.97;;;1.30;;
16640;SDS011;8434;47.990;7.880;2024-01-30T02:27:20;1.23;;;1.13;;
16640;SDS011;8434;47.990;7.880;2024-01-30T02:30:06;2.23;;;1.80;;
16640;SDS011;8434;47.990;7.880;2024-01-30T02:32:52;5.90;;;1.80;;
16640;SDS011;8434;47.990;7.880;2024-01-30T02:35:37;2.73;;;1.50;;
16640;SDS011;8434;47.990;7.880;2024-01-30T02:38:24;1.93;;;1.53;;
16640;SDS011;8434;47.990;7.880;2024-01-30T02:41:10;2.73;;;1.70;;
16640;SDS011;8434;47.990;7.880;2024-01-30T02:43:56;4.13;;;1.40;;
16640;SDS011;8434;47.990;7.880;2024-01-30T02:46:41;2.13;;;1.53;;
16640;SDS011;8434;47.990;7.880;2024-01-30T02:49:27;2.77;;;1.70;;
16640;SDS011;8434;47.990;7.880;2024-01-30T02:52:12;2.20;;;1.70;;
16640;SDS011;8434;47.990;7.880;2024-01-30T02:54:59;2.93;;;1.47;;
16640;SDS011;8434;47.990;7.880;2024-01-30T02:57:44;2.50;;;1.20;;
16640;SDS011;8434;47.990;7.880;2024-01-30T03:00:30;3.63;;;1.83;;
16640;SDS011;8434;47.990;7.880;2024-01-30T03:03:15;1.97;;;1.43;;
16640;SDS011;8434;47.990;7.880;2024-01-30T03:06:01;2.40;;;1.30;;
16640;SDS011;8434;47.990;7.880;2024-01-30T03:08:46;3.00;;;1.53;;
16640;SDS011;8434;47.990;7.880;2024-01-30T03:11:33;1.57;;;1.20;;
16640;SDS011;8434;47.990;7.880;2024-01-30T03:14:19;2.03;;;1.60;;
16640;SDS011;8434;47.990;7.880;2024-01-30T03:17:04;3.20;;;1.70;;
16640;SDS011;8434;47.990;7.880;2024-01-30T03:19:50;2.27;;;2.07;;
16640;SDS011;8434;47.990;7.880;2024-01-30T03:22:35;3.07;;;1.87;;
16640;SDS011;8434;47.990;7.880;2024-01-30T03:25:21;2.57;;;1.57;;
16640;SDS011;8434;47.990;7.880;2024-01-30T03:28:07;2.20;;;1.50;;
16640;SDS011;8434;47.990;7.880;2024-01-30T03:30:52;1.70;;;1.00;;
16640;SDS011;8434;47.990;7.880;2024-01-30T03:33:38;2.73;;;1.50;;
16640;SDS011;8434;47.990;7.880;2024-01-30T03:36:23;2.07;;;1.40;;
16640;SDS011;8434;47.990;7.880;2024-01-30T03:39:09;2.17;;;1.50;;
16640;SDS011;8434;47.990;7.880;2024-01-30T03:41:54;2.07;;;1.47;;
16640;SDS011;8434;47.990;7.880;2024-01-30T03:44:41;1.97;;;1.70;;
16640;SDS011;8434;47.990;7.880;2024-01-30T03:47:26;2.13;;;1.53;;
16640;SDS011;8434;47.990;7.880;2024-01-30T03:50:12;2.10;;;1.60;;
16640;SDS011;8434;47.990;7.880;2024-01-30T03:52:57;2.70;;;1.73;;
16640;SDS011;8434;47.990;7.880;2024-01-30T03:55:43;4.10;;;1.70;;
16640;SDS011;8434;47.990;7.880;2024-01-30T03:58:28;3.23;;;1.77;;
16640;SDS011;8434;47.990;7.880;2024-01-30T04:01:15;2.63;;;2.10;;
16640;SDS011;8434;47.990;7.880;2024-01-30T04:04:01;2.07;;;1.57;;
16640;SDS011;8434;47.990;7.880;2024-01-30T04:06:46;2.00;;;1.60;;
16640;SDS011;8434;47.990;7.880;2024-01-30T04:09:32;2.57;;;1.67;;
16640;SDS011;8434;47.990;7.880;2024-01-30T04:12:17;2.90;;;1.80;;
16640;SDS011;8434;47.990;7.880;2024-01-30T04:15:03;2.00;;;1.60;;
16640;SDS011;8434;47.990;7.880;2024-01-30T04:17:50;3.70;;;1.93;;
16640;SDS011;8434;47.990;7.880;2024-01-30T04:20:35;1.90;;;1.47;;
16640;SDS011;8434;47.990;7.880;2024-01-30T04:23:21;2.70;;;1.40;;
16640;SDS011;8434;47.990;7.880;2024-01-30T04:26:06;2.90;;;1.80;;
16640;SDS011;8434;47.990;7.880;2024-01-30T04:28:52;3.93;;;1.80;;
16640;SDS011;8434;47.990;7.880;2024-01-30T04:31:37;2.57;;;2.00;;
16640;SDS011;8434;47.990;7.880;2024-01-30T04:34:24;2.87;;;1.60;;
16640;SDS011;8434;47.990;7.880;2024-01-30T04:37:10;2.97;;;2.00;;
16640;SDS011;8434;47.990;7.880;2024-01-30T04:39:56;2.30;;;1.67;;
16640;SDS011;8434;47.990;7.880;2024-01-30T04:42:41;1.90;;;1.60;;
16640;SDS011;8434;47.990;7.880;2024-01-30T04:45:27;1.93;;;1.63;;
16640;SDS011;8434;47.990;7.880;2024-01-30T04:48:12;2.37;;;2.03;;
16640;SDS011;8434;47.990;7.880;2024-01-30T04:50:59;2.03;;;1.73;;
16640;SDS011;8434;47.990;7.880;2024-01-30T04:53:47;3.03;;;1.80;;
16640;SDS011;8434;47.990;7.880;2024-01-30T04:56:32;2.03;;;1.70;;
16640;SDS011;8434;47.990;7.880;2024-01-30T04:59:18;2.13;;;1.80;;
16640;SDS011;8434;47.990;7.880;2024-01-30T05:02:05;3.70;;;2.30;;
16640;SDS011;8434;47.990;7.880;2024-01-30T05:04:51;2.30;;;1.63;;
16640;SDS011;8434;47.990;7.880;2024-01-30T05:07:38;4.37;;;2.00;;
16640;SDS011;8434;47.990;7.880;2024-01-30T05:10:24;2.20;;;1.70;;
16640;SDS011;8434;47.990;7.880;2024-01-30T05:13:09;2.93;;;1.90;;
16640;SDS011;8434;47.990;7.880;2024-01-30T05:15:54;3.93;;;2.43;;
16640;SDS011;8434;47.990;7.880;2024-01-30T05:18:40;2.40;;;1.73;;
16640;SDS011;8434;47.990;7.880;2024-01-30T05:21:26;2.73;;;2.00;;
16640;SDS011;8434;47.990;7.880;2024-01-30T05:24:12;2.73;;;2.27;;
16640;SDS011;8434;47.990;7.880;2024-01-30T05:26:58;3.87;;;2.80;;
16640;SDS011;8434;47.990;7.880;2024-01-30T05:29:44;2.20;;;1.80;;
16640;SDS011;8434;47.990;7.880;2024-01-30T05:32:30;3.60;;;2.10;;
16640;SDS011;8434;47.990;7.880;2024-01-30T05:35:15;2.70;;;1.70;;
16640;SDS011;8434;47.990;7.880;2024-01-30T05:38:00;3.73;;;1.73;;
16640;SDS011;8434;47.990;7.880;2024-01-30T05:40:47;2.10;;;1.70;;
16640;SDS011;8434;47.990;7.880;2024-01-30T05:43:33;3.77;;;2.40;;
16640;SDS011;8434;47.990;7.880;2024-01-30T05:46:18;2.10;;;1.60;;
16640;SDS011;8434;47.990;7.880;2024-01-30T05:49:03;15.87;;;6.47;;
16640;SDS011;8434;47.990;7.880;2024-01-30T05:51:49;3.73;;;2.33;;
16640;SDS011;8434;47.990;7.880;2024-01-30T05:54:35;2.90;;;2.37;;
16640;SDS011;8434;47.990;7.880;2024-01-30T05:57:21;3.60;;;2.23;;
16640;SDS011;8434;47.990;7.880;2024-01-30T06:00:07;3.70;;;2.53;;
16640;SDS011;8434;47.990;7.880;2024-01-30T06:02:52;2.10;;;1.90;;
16640;SDS011;8434;47.990;7.880;2024-01-30T06:05:38;5.17;;;3.17;;
16640;SDS011;8434;47.990;7.880;2024-01-30T06:08:23;3.27;;;2.20;;
16640;SDS011;8434;47.990;7.880;2024-01-30T06:11:09;3.07;;;2.00;;
16640;SDS011;8434;47.990;7.880;2024-01-30T06:13:56;3.57;;;2.20;;
16640;SDS011;8434;47.990;7.880;2024-01-30T06:16:41;2.47;;;1.97;;
16640;SDS011;8434;47.990;7.880;2024-01-30T06:19:27;4.33;;;2.60;;
16640;SDS011;8434;47.990;7.880;2024-01-30T06:22:13;4.17;;;2.03;;
16640;SDS011;8434;47.990;7.880;2024-01-30T06:24:58;6.43;;;2.57;;
16640;SDS011;8434;47.990;7.880;2024-01-30T06:27:43;3.00;;;2.10;;
16640;SDS011;8434;47.990;7.880;2024-01-30T06:30:30;3.13;;;2.20;;
16640;SDS011;8434;47.990;7.880;2024-01-30T06:33:16;7.57;;;5.50;;
16640;SDS011;8434;47.990;7.880;2024-01-30T06:36:02;4.00;;;3.20;;
16640;SDS011;8434;47.990;7.880;2024-01-30T06:38:47;3.83;;;2.37;;
16640;SDS011;8434;47.990;7.880;2024-01-30T06:41:33;5.23;;;2.70;;
16640;SDS011;8434;47.990;7.880;2024-01-30T06:44:18;3.70;;;2.30;;
16640;SDS011;8434;47.990;7.880;2024-01-30T06:47:05;5.20;;;2.73;;
16640;SDS011;8434;47.990;7.880;2024-01-30T06:49:51;5.23;;;2.40;;
16640;SDS011;8434;47.990;7.880;2024-01-30T06:52:36;3.40;;;2.20;;
16640;SDS011;8434;47.990;7.880;2024-01-30T06:55:25;2.53;;;2.07;;
16640;SDS011;8434;47.990;7.880;2024-01-30T06:58:16;3.13;;;2.33;;
16640;SDS011;8434;47.990;7.880;2024-01-30T07:01:02;2.97;;;2.30;;
16640;SDS011;8434;47.990;7.880;2024-01-30T07:03:48;4.60;;;2.70;;
16640;SDS011;8434;47.990;7.880;2024-01-30T07:06:36;3.70;;;2.53;;
16640;SDS011;8434;47.990;7.880;2024-01-30T07:09:21;4.33;;;2.87;;
16640;SDS011;8434;47.990;7.880;2024-01-30T07:12:07;2.53;;;2.27;;
16640;SDS011;8434;47.990;7.880;2024-01-30T07:14:52;3.87;;;2.67;;
16640;SDS011;8434;47.990;7.880;2024-01-30T07:17:39;5.63;;;2.90;;
16640;SDS011;8434;47.990;7.880;2024-01-30T07:20:26;4.27;;;2.67;;
16640;SDS011;8434;47.990;7.880;2024-01-30T07:23:11;3.73;;;2.80;;
16640;SDS011;8434;47.990;7.880;2024-01-30T07:25:57;3.90;;;3.43;;
16640;SDS011;8434;47.990;7.880;2024-01-30T07:28:43;7.67;;;3.73;;
16640;SDS011;8434;47.990;7.880;2024-01-30T07:31:29;8.23;;;3.57;;
16640;SDS011;8434;47.990;7.880;2024-01-30T07:34:14;4.00;;;3.10;;
16640;SDS011;8434;47.990;7.880;2024-01-30T07:37:01;3.90;;;2.90;;
16640;SDS011;8434;47.990;7.880;2024-01-30T07:39:47;5.63;;;3.93;;
16640;SDS011;8434;47.990;7.880;2024-01-30T07:42:32;5.13;;;3.37;;
16640;SDS011;8434;47.990;7.880;2024-01-30T07:45:18;5.30;;;2.97;;
16640;SDS011;8434;47.990;7.880;2024-01-30T07:48:06;4.57;;;2.70;;
16640;SDS011;8434;47.990;7.880;2024-01-30T07:50:51;7.40;;;2.70;;
16640;SDS011;8434;47.990;7.880;2024-01-30T07:53:38;5.90;;;3.17;;
16640;SDS011;8434;47.990;7.880;2024-01-30T07:56:26;6.47;;;3.27;;
16640;SDS011;8434;47.990;7.880;2024-01-30T07:59:12;8.80;;;4.00;;
16640;SDS011;8434;47.990;7.880;2024-01-30T08:01:57;5.27;;;4.07;;
16640;SDS011;8434;47.990;7.880;2024-01-30T08:04:43;7.67;;;3.63;;
16640;SDS011;8434;47.990;7.880;2024-01-30T08:07:33;30.60;;;14.93;;
16640;SDS011;8434;47.990;7.880;2024-01-30T08:10:20;7.27;;;4.63;;
16640;SDS011;8434;47.990;7.880;2024-01-30T08:13:06;7.67;;;3.50;;
16640;SDS011;8434;47.990;7.880;2024-01-30T08:15:52;4.57;;;3.00;;
16640;SDS011;8434;47.990;7.880;2024-01-30T08:18:38;6.47;;;3.20;;
16640;SDS011;8434;47.990;7.880;2024-01-30T08:21:23;6.60;;;3.57;;
16640;SDS011;8434;47.990;7.880;2024-01-30T08:24:09;4.13;;;3.07;;
16640;SDS011;8434;47.990;7.880;2024-01-30T08:26:56;6.03;;;3.23;;
16640;SDS011;8434;47.990;7.880;2024-01-30T08:29:42;4.97;;;2.87;;
16640;SDS011;8434;47.990;7.880;2024-01-30T08:32:27;4.60;;;3.47;;
16640;SDS011;8434;47.990;7.880;2024-01-30T08:35:13;5.13;;;2.90;;
16640;SDS011;8434;47.990;7.880;2024-01-30T08:37:59;3.80;;;2.87;;
16640;SDS011;8434;47.990;7.880;2024-01-30T08:40:44;3.80;;;3.20;;
16640;SDS011;8434;47.990;7.880;2024-01-30T08:43:31;5.53;;;2.60;;
16640;SDS011;8434;47.990;7.880;2024-01-30T08:46:17;3.70;;;2.30;;
16640;SDS011;8434;47.990;7.880;2024-01-30T08:49:03;4.93;;;3.10;;
16640;SDS011;8434;47.990;7.880;2024-01-30T08:51:49;3.60;;;2.63;;
16640;SDS011;8434;47.990;7.880;2024-01-30T08:54:34;6.50;;;3.13;;
16640;SDS011;8434;47.990;7.880;2024-01-30T08:57:19;4.87;;;3.30;;
16640;SDS011;8434;47.990;7.880;2024-01-30T09:00:07;9.70;;;3.30;;
16640;SDS011;8434;47.990;7.880;2024-01-30T09:02:54;4.83;;;3.30;;
16640;SDS011;8434;47.990;7.880;2024-01-30T09:05:39;5.30;;;3.07;;
16640;SDS011;8434;47.990;7.880;2024-01-30T09:08:25;6.53;;;4.00;;
16640;SDS011;8434;47.990;7.880;2024-01-30T09:11:11;7.97;;;3.97;;
16640;SDS011;8434;47.990;7.880;2024-01-30T09:13:57;8.40;;;3.30;;
16640;SDS011;8434;47.990;7.880;2024-01-30T09:16:43;4.27;;;3.10;;
16640;SDS011;8434;47.990;7.880;2024-01-30T09:19:28;10.67;;;4.67;;
16640;SDS011;8434;47.990;7.880;2024-01-30T09:22:14;5.33;;;3.00;;
16640;SDS011;8434;47.990;7.880;2024-01-30T09:24:59;5.17;;;3.53;;
16640;SDS011;8434;47.990;7.880;2024-01-30T09:27:46;7.03;;;3.03;;
16640;SDS011;8434;47.990;7.880;2024-01-30T09:30:31;5.73;;;3.60;;
16640;SDS011;8434;47.990;7.880;2024-01-30T09:33:18;6.60;;;3.40;;
16640;SDS011;8434;47.990;7.880;2024-01-30T09:36:04;8.70;;;3.60;;
16640;SDS011;8434;47.990;7.880;2024-01-30T09:38:50;5.40;;;3.50;;
16640;SDS011;8434;47.990;7.880;2024-01-30T09:41:36;5.83;;;3.73;;
16640;SDS011;8434;47.990;7.880;2024-01-30T09:44:26;7.47;;;4.03;;
16640;SDS011;8434;47.990;7.880;2024-01-30T09:47:13;6.13;;;4.37;;
16640;SDS011;8434;47.990;7.880;2024-01-30T09:50:02;9.20;;;4.10;;
16640;SDS011;8434;47.990;7.880;2024-01-30T09:52:49;10.73;;;5.30;;
16640;SDS011;8434;47.990;7.880;2024-01-30T09:55:36;7.53;;;4.30;;
16640;SDS011;8434;47.990;7.880;2024-01-30T09:58:22;6.17;;;4.57;;
16640;SDS011;8434;47.990;7.880;2024-01-30T10:01:07;6.50;;;3.90;;
16640;SDS011;8434;47.990;7.880;2024-01-30T10:03:53;6.50;;;3.77;;
16640;SDS011;8434;47.990;7.880;2024-01-30T10:06:40;6.03;;;3.57;;
16640;SDS011;8434;47.990;7.880;2024-01-30T10:09:25;6.13;;;3.73;;
16640;SDS011;8434;47.990;7.880;2024-01-30T10:12:11;4.53;;;3.20;;
16640;SDS011;8434;47.990;7.880;2024-01-30T10:14:57;9.53;;;3.60;;
16640;SDS011;8434;47.990;7.880;2024-01-30T10:17:43;7.37;;;4.50;;
16640;SDS011;8434;47.990;7.880;2024-01-30T10:20:29;6.00;;;4.20;;
16640;SDS011;8434;47.990;7.880;2024-01-30T10:23:16;5.80;;;3.73;;
16640;SDS011;8434;47.990;7.880;2024-01-30T10:26:02;6.27;;;4.50;;
16640;SDS011;8434;47.990;7.880;2024-01-30T10:28:47;4.87;;;3.47;;
16640;SDS011;8434;47.990;7.880;2024-01-30T10:31:33;7.13;;;3.30;;
16640;SDS011;8434;47.990;7.880;2024-01-30T10:34:18;3.40;;;2.43;;
16640;SDS011;8434;47.990;7.880;2024-01-30T10:37:06;5.73;;;2.93;;
16640;SDS011;8434;47.990;7.880;2024-01-30T10:39:57;5.60;;;2.63;;
16640;SDS011;8434;47.990;7.880;2024-01-30T10:42:46;4.37;;;3.57;;
16640;SDS011;8434;47.990;7.880;2024-01-30T10:45:31;6.67;;;4.50;;
16640;SDS011;8434;47.990;7.880;2024-01-30T10:48:16;5.03;;;3.63;;
16640;SDS011;8434;47.990;7.880;2024-01-30T10:51:03;6.53;;;3.90;;
16640;SDS011;8434;47.990;7.880;2024-01-30T10:53:49;8.30;;;4.10;;
16640;SDS011;8434;47.990;7.880;2024-01-30T10:56:37;4.97;;;3.70;;
16640;SDS011;8434;47.990;7.880;2024-01-30T10:59:23;5.03;;;3.43;;
16640;SDS011;8434;47.990;7.880;2024-01-30T11:02:08;3.27;;;2.33;;
16640;SDS011;8434;47.990;7.880;2024-01-30T11:04:55;5.67;;;2.30;;
16640;SDS011;8434;47.990;7.880;2024-01-30T11:07:40;2.40;;;2.00;;
16640;SDS011;8434;47.990;7.880;2024-01-30T11:10:26;2.87;;;1.80;;
16640;SDS011;8434;47.990;7.880;2024-01-30T11:13:14;7.47;;;3.30;;
16640;SDS011;8434;47.990;7.880;2024-01-30T11:16:02;2.70;;;2.00;;
16640;SDS011;8434;47.990;7.880;2024-01-30T11:18:50;6.20;;;1.73;;
16640;SDS011;8434;47.990;7.880;2024-01-30T11:21:38;4.03;;;1.87;;
16640;SDS011;8434;47.990;7.880;2024-01-30T11:24:25;2.43;;;1.50;;
16640;SDS011;8434;47.990;7.880;2024-01-30T11:27:10;2.77;;;1.93;;
16640;SDS011;8434;47.990;7.880;2024-01-30T11:30:02;2.27;;;1.40;;
16640;SDS011;8434;47.990;7.880;2024-01-30T11:32:57;3.57;;;1.63;;
16640;SDS011;8434;47.990;7.880;2024-01-30T11:35:43;1.67;;;1.40;;
16640;SDS011;8434;47.990;7.880;2024-01-30T11:38:28;3.67;;;1.70;;
16640;SDS011;8434;47.990;7.880;2024-01-30T11:41:14;2.03;;;1.27;;
16640;SDS011;8434;47.990;7.880;2024-01-30T11:44:03;2.27;;;1.73;;
16640;SDS011;8434;47.990;7.880;2024-01-30T11:46:50;1.77;;;1.60;;
16640;SDS011;8434;47.990;7.880;2024-01-30T11:49:36;2.40;;;1.60;;
16640;SDS011;8434;47.990;7.880;2024-01-30T11:52:21;2.00;;;1.20;;
16640;SDS011;8434;47.990;7.880;2024-01-30T11:55:07;2.97;;;1.57;;
16640;SDS011;8434;47.990;7.880;2024-01-30T11:57:55;2.50;;;1.60;;
16640;SDS011;8434;47.990;7.880;2024-01-30T12:00:40;1.67;;;1.43;;
16640;SDS011;8434;47.990;7.880;2024-01-30T12:03:27;1.80;;;1.40;;
16640;SDS011;8434;47.990;7.880;2024-01-30T12:06:12;2.63;;;1.40;;
16640;SDS011;8434;47.990;7.880;2024-01-30T12:08:57;1.83;;;1.30;;
16640;SDS011;8434;47.990;7.880;2024-01-30T12:11:43;2.20;;;1.77;;
16640;SDS011;8434;47.990;7.880;2024-01-30T12:14:29;1.60;;;1.50;;
16640;SDS011;8434;47.990;7.880;2024-01-30T12:17:22;1.97;;;1.70;;
16640;SDS011;8434;47.990;7.880;2024-01-30T12:20:10;2.07;;;1.53;;
16640;SDS011;8434;47.990;7.880;2024-01-30T12:22:56;2.57;;;1.67;;
16640;SDS011;8434;47.990;7.880;2024-01-30T12:25:42;2.67;;;1.50;;
16640;SDS011;8434;47.990;7.880;2024-01-30T12:28:27;3.23;;;1.80;;
16640;SDS011;8434;47.990;7.880;2024-01-30T12:31:12;2.63;;;1.70;;
16640;SDS011;8434;47.990;7.880;2024-01-30T12:33:59;2.37;;;1.77;;
16640;SDS011;8434;47.990;7.880;2024-01-30T12:36:46;2.50;;;1.70;;
16640;SDS011;8434;47.990;7.880;2024-01-30T12:39:31;2.27;;;1.83;;
16640;SDS011;8434;47.990;7.880;2024-01-30T12:42:18;3.07;;;1.60;;
16640;SDS011;8434;47.990;7.880;2024-01-30T12:45:04;2.07;;;1.70;;
16640;SDS011;8434;47.990;7.880;2024-01-30T12:47:50;3.40;;;2.20;;
16640;SDS011;8434;47.990;7.880;2024-01-30T12:50:36;3.13;;;1.80;;
16640;SDS011;8434;47.990;7.880;2024-01-30T12:53:22;2.10;;;1.90;;
16640;SDS011;8434;47.990;7.880;2024-01-30T12:56:08;3.30;;;2.73;;
16640;SDS011;8434;47.990;7.880;2024-01-30T12:58:54;2.90;;;1.73;;
16640;SDS011;8434;47.990;7.880;2024-01-30T13:01:39;3.97;;;2.03;;
16640;SDS011;8434;47.990;7.880;2024-01-30T13:04:24;5.33;;;1.90;;
16640;SDS011;8434;47.990;7.880;2024-01-30T13:07:09;2.47;;;1.77;;
16640;SDS011;8434;47.990;7.880;2024-01-30T13:09:56;3.27;;;1.97;;
16640;SDS011;8434;47.990;7.880;2024-01-30T13:12:46;3.20;;;2.07;;
16640;SDS011;8434;47.990;7.880;2024-01-30T13:15:31;3.27;;;1.87;;
16640;SDS011;8434;47.990;7.880;2024-01-30T13:18:17;2.97;;;2.27;;
16640;SDS011;8434;47.990;7.880;2024-01-30T13:21:03;3.30;;;2.03;;
16640;SDS011;8434;47.990;7.880;2024-01-30T13:23:48;2.60;;;1.77;;
16640;SDS011;8434;47.990;7.880;2024-01-30T13:26:38;3.13;;;2.13;;
16640;SDS011;8434;47.990;7.880;2024-01-30T13:29:23;2.43;;;1.90;;
16640;SDS011;8434;47.990;7.880;2024-01-30T13:32:09;3.43;;;1.83;;
16640;SDS011;8434;47.990;7.880;2024-01-30T13:34:54;3.00;;;1.87;;
16640;SDS011;8434;47.990;7.880;2024-01-30T13:37:40;3.47;;;2.13;;
16640;SDS011;8434;47.990;7.880;2024-01-30T13:40:25;1.53;;;1.43;;
16640;SDS011;8434;47.990;7.880;2024-01-30T13:43:12;3.17;;;2.20;;
16640;SDS011;8434;47.990;7.880;2024-01-30T13:45:58;2.87;;;2.57;;
16640;SDS011;8434;47.990;7.880;2024-01-30T13:48:44;2.70;;;1.90;;
16640;SDS011;8434;47.990;7.880;2024-01-30T13:51:29;4.00;;;2.30;;
16640;SDS011;8434;47.990;7.880;2024-01-30T13:54:15;3.23;;;2.10;;
16640;SDS011;8434;47.990;7.880;2024-01-30T13:57:00;3.90;;;2.43;;
16640;SDS011;8434;47.990;7.880;2024-01-30T13:59:47;3.63;;;2.03;;
16640;SDS011;8434;47.990;7.880;2024-01-30T14:02:32;3.97;;;2.63;;
16640;SDS011;8434;47.990;7.880;2024-01-30T14:05:18;3.37;;;2.37;;
16640;SDS011;8434;47.990;7.880;2024-01-30T14:08:05;3.10;;;2.00;;
16640;SDS011;8434;47.990;7.880;2024-01-30T14:10:51;4.17;;;2.17;;
16640;SDS011;8434;47.990;7.880;2024-01-30T14:13:37;4.23;;;2.40;;
16640;SDS011;8434;47.990;7.880;2024-01-30T14:16:23;3.73;;;2.10;;
16640;SDS011;8434;47.990;7.880;2024-01-30T14:19:09;2.47;;;2.27;;
16640;SDS011;8434;47.990;7.880;2024-01-30T14:21:55;3.30;;;2.40;;
16640;SDS011;8434;47.990;7.880;2024-01-30T14:24:40;3.40;;;2.13;;
16640;SDS011;8434;47.990;7.880;2024-01-30T14:27:25;2.40;;;2.10;;
16640;SDS011;8434;47.990;7.880;2024-01-30T14:30:11;4.07;;;2.20;;
16640;SDS011;8434;47.990;7.880;2024-01-30T14:32:58;4.20;;;2.40;;
16640;SDS011;8434;47.990;7.880;2024-01-30T14:35:43;3.87;;;2.43;;
16640;SDS011;8434;47.990;7.880;2024-01-30T14:38:29;3.93;;;2.17;;
16640;SDS011;8434;47.990;7.880;2024-01-30T14:41:15;3.83;;;2.10;;
16640;SDS011;8434;47.990;7.880;2024-01-30T14:44:00;4.87;;;2.43;;
16640;SDS011;8434;47.990;7.880;2024-01-30T14:46:45;2.83;;;1.97;;
16640;SDS011;8434;47.990;7.880;2024-01-30T14:49:33;4.87;;;2.93;;
16640;SDS011;8434;47.990;7.880;2024-01-30T14:52:18;4.60;;;2.77;;
16640;SDS011;8434;47.990;7.880;2024-01-30T14:55:04;5.00;;;3.17;;
16640;SDS011;8434;47.990;7.880;2024-01-30T14:57:49;3.43;;;2.57;;
16640;SDS011;8434;47.990;7.880;2024-01-30T15:00:35;4.13;;;3.10;;
16640;SDS011;8434;47.990;7.880;2024-01-30T15:03:22;3.83;;;2.47;;
16640;SDS011;8434;47.990;7.880;2024-01-30T15:06:09;6.60;;;3.53;;
16640;SDS011;8434;47.990;7.880;2024-01-30T15:08:55;3.23;;;2.63;;
16640;SDS011;8434;47.990;7.880;2024-01-30T15:11:40;4.20;;;3.27;;
16640;SDS011;8434;47.990;7.880;2024-01-30T15:14:25;6.60;;;2.90;;
16640;SDS011;8434;47.990;7.880;2024-01-30T15:17:11;5.20;;;2.90;;
16640;SDS011;8434;47.990;7.880;2024-01-30T15:19:56;5.37;;;3.23;;
16640;SDS011;8434;47.990;7.880;2024-01-30T15:22:44;3.90;;;2.60;;
16640;SDS011;8434;47.990;7.880;2024-01-30T15:25:29;6.03;;;3.00;;
16640;SDS011;8434;47.990;7.880;2024-01-30T15:28:14;4.90;;;2.20;;
16640;SDS011;8434;47.990;7.880;2024-01-30T15:31:01;6.90;;;3.40;;
16640;SDS011;8434;47.990;7.880;2024-01-30T15:33:47;5.47;;;3.00;;
16640;SDS011;8434;47.990;7.880;2024-01-30T15:36:32;6.57;;;3.80;;
16640;SDS011;8434;47.990;7.880;2024-01-30T15:39:19;14.83;;;9.13;;
16640;SDS011;8434;47.990;7.880;2024-01-30T15:42:04;16.27;;;9.10;;
16640;SDS011;8434;47.990;7.880;2024-01-30T15:44:50;14.83;;;9.20;;
16640;SDS011;8434;47.990;7.880;2024-01-30T15:47:35;10.13;;;6.67;;
16640;SDS011;8434;47.990;7.880;2024-01-30T15:50:21;8.30;;;4.80;;
16640;SDS011;8434;47.990;7.880;2024-01-30T15:53:06;10.67;;;6.03;;
16640;SDS011;8434;47.990;7.880;2024-01-30T15:55:53;9.00;;;5.73;;
16640;SDS011;8434;47.990;7.880;2024-01-30T15:58:39;5.53;;;3.63;;
16640;SDS011;8434;47.990;7.880;2024-01-30T16:01:24;20.60;;;5.17;;
16640;SDS011;8434;47.990;7.880;2024-01-30T16:04:09;6.33;;;4.10;;
16640;SDS011;8434;47.990;7.880;2024-01-30T16:06:55;7.30;;;3.70;;
16640;SDS011;8434;47.990;7.880;2024-01-30T16:09:40;5.30;;;3.80;;
16640;SDS011;8434;47.990;7.880;2024-01-30T16:12:48;4.23;;;3.10;;
16640;SDS011;8434;47.990;7.880;2024-01-30T16:15:53;6.47;;;3.30;;
16640;SDS011;8434;47.990;7.880;2024-01-30T16:18:59;4.03;;;3.13;;
16640;SDS011;8434;47.990;7.880;2024-01-30T16:22:04;8.27;;;4.63;;
16640;SDS011;8434;47.990;7.880;2024-01-30T16:25:15;5.43;;;4.30;;
16640;SDS011;8434;47.990;7.880;2024-01-30T16:28:25;5.07;;;4.10;;
16640;SDS011;8434;47.990;7.880;2024-01-30T16:31:31;7.70;;;4.10;;
16640;SDS011;8434;47.990;7.880;2024-01-30T16:34:40;5.83;;;3.60;;
16640;SDS011;8434;47.990;7.880;2024-01-30T16:37:45;4.97;;;3.63;;
16640;SDS011;8434;47.990;7.880;2024-01-30T16:40:49;5.00;;;3.00;;
16640;SDS011;8434;47.990;7.880;2024-01-30T16:43:57;5.90;;;4.50;;
16640;SDS011;8434;47.990;7.880;2024-01-30T16:47:08;5.53;;;3.53;;
16640;SDS011;8434;47.990;7.880;2024-01-30T16:50:19;7.67;;;3.80;;
16640;SDS011;8434;47.990;7.880;2024-01-30T16:53:26;4.70;;;3.57;;
16640;SDS011;8434;47.990;7.880;2024-01-30T16:56:36;9.03;;;6.47;;
16640;SDS011;8434;47.990;7.880;2024-01-30T16:59:47;9.53;;;5.43;;